KOLY

Olney-Noble Airport

Olney-Noble, Illinois, USA
METAR KOLY 242135Z AUTO 18004KT 10SM SCT015 BKN029 OVC036 24/23 A2993 RMK AO2 T02400227
Observed Flight Rules
Sep-24 @ 21:35 UTC (29 minutes ago) Marginal Visual Flight Rules
Wind Visibility Clouds
180° at 4 knots 10 miles
  • Scattered at 1,500' AGL
  • Broken at 2,900' AGL
  • Overcast at 3,600' AGL
Temperatures Readings
Current 24°C / 75°F
Dewpoint 23°C / 73°F
Humidity 94%
Altimeter 29.93" Hg
Pressure 1014 hPa
Elevation 147
METAR KOLY 242135Z AUTO 18004KT 10SM SCT015 BKN029 OVC036 24/23 A2993 RMK AO2 T02400227
Observed Flight Rules
Sep-24 @ 21:35 UTC
(29 minutes ago)
MVFR
Wind Visibility
180° at 4 knots 10 miles
Clouds
  • Scattered at 1,500' AGL
  • Broken at 2,900' AGL
  • Overcast at 3,600' AGL
Temperature Dewpoint
24°C / 75°F 23°C / 73°F
Humidity Altimeter Pressure
94% 29.93" Hg 1014 hPa